Time;durP1;ratioP1;P1;durP2;ratioP2;P2;SDS_P1;SDS_P2;PMS_P1;PMS_P2;Temp;Humidity;BMP_temperature;BMP_pressure;BME280_temperature;BME280_humidity;BME280_pressure;Samples;Min_cycle;Max_cycle;Signal;HPM_P1;HPM_P2
2022/06/02 00:01:48;;;;;;;2.28;1.10;;;11.80;96.10;;;;;;6241766;22;19996;-76
2022/06/02 00:04:43;;;;;;;5.50;1.05;;;11.90;96.20;;;;;;6239004;22;20484;-71
2022/06/02 00:07:28;;;;;;;2.00;1.08;;;11.90;96.20;;;;;;6240084;22;20007;-67
2022/06/02 00:10:07;;;;;;;3.53;1.10;;;12.00;96.30;;;;;;6239845;22;20012;-73
2022/06/02 00:12:56;;;;;;;3.97;1.60;;;12.00;96.30;;;;;;6239708;22;20004;-67
2022/06/02 00:15:52;;;;;;;3.67;1.20;;;12.10;95.60;;;;;;6240553;22;20004;-71
2022/06/02 00:18:41;;;;;;;3.08;0.98;;;12.10;95.80;;;;;;6241506;22;20006;-73
2022/06/02 00:21:33;;;;;;;2.92;1.00;;;12.10;95.80;;;;;;6241479;22;20030;-69
2022/06/02 00:24:30;;;;;;;2.03;0.90;;;12.20;95.70;;;;;;6240346;22;20004;-67
2022/06/02 00:27:12;;;;;;;2.67;0.82;;;12.20;95.80;;;;;;6241162;22;20050;-71
2022/06/02 00:29:52;;;;;;;4.68;1.15;;;12.30;95.90;;;;;;6239218;22;20020;-69
2022/06/02 00:32:44;;;;;;;1.65;0.60;;;12.30;95.80;;;;;;6240427;22;19996;-67
2022/06/02 00:35:25;;;;;;;3.90;0.80;;;12.40;95.60;;;;;;6239779;23;20000;-75
2022/06/02 00:38:01;;;;;;;3.15;0.90;;;12.40;96.00;;;;;;6238716;23;20334;-66
2022/06/02 00:40:30;;;;;;;2.60;1.00;;;12.30;95.60;;;;;;6241665;22;20058;-67
2022/06/02 00:43:03;;;;;;;3.38;1.35;;;12.40;96.20;;;;;;6240420;23;20011;-72
2022/06/02 00:45:32;;;;;;;2.67;1.08;;;12.50;96.00;;;;;;6242573;22;20395;-69
2022/06/02 00:48:17;;;;;;;2.05;1.33;;;12.50;95.80;;;;;;6242537;22;20028;-72
2022/06/02 00:51:04;;;;;;;2.20;0.95;;;12.50;96.00;;;;;;6241252;22;20008;-67
2022/06/02 00:59:48;;;;;;;2.40;0.93;;;12.70;95.50;;;;;;6241909;23;20057;-70
2022/06/02 01:02:16;;;;;;;2.78;0.75;;;12.80;95.90;;;;;;6240758;23;20461;-67
2022/06/02 01:04:44;;;;;;;5.82;0.98;;;12.90;95.60;;;;;;6242222;22;20012;-68
2022/06/02 01:07:41;;;;;;;2.78;0.88;;;12.90;94.80;;;;;;6243033;22;20000;-68
2022/06/02 01:10:18;;;;;;;1.60;0.90;;;13.00;94.70;;;;;;6240759;23;20004;-71
2022/06/02 01:12:48;;;;;;;2.25;0.80;;;13.10;94.70;;;;;;6242785;22;20090;-68
2022/06/02 01:15:26;;;;;;;2.03;1.00;;;13.20;94.90;;;;;;6242725;22;20003;-67
2022/06/02 01:18:19;;;;;;;4.57;0.82;;;13.20;94.50;;;;;;6243278;22;19996;-68
2022/06/02 01:21:08;;;;;;;2.53;1.08;;;13.40;94.50;;;;;;6189610;22;20058;-69
2022/06/02 01:24:11;;;;;;;3.47;0.90;;;13.50;94.40;;;;;;6242736;22;20027;-66
2022/06/02 01:27:11;;;;;;;3.47;1.70;;;13.60;93.90;;;;;;6241805;22;20016;-66
2022/06/02 01:30:20;;;;;;;3.00;0.98;;;13.60;93.40;;;;;;6176425;22;20004;-66
2022/06/02 01:33:22;;;;;;;3.28;0.90;;;13.70;93.50;;;;;;6217054;23;20015;-66
2022/06/02 01:36:13;;;;;;;2.47;1.25;;;13.70;93.20;;;;;;6237120;23;20450;-66
2022/06/02 01:39:08;;;;;;;1.23;0.80;;;13.80;93.70;;;;;;6242807;22;20000;-66
2022/06/02 01:41:57;;;;;;;3.63;0.70;;;13.90;93.40;;;;;;6241977;22;19996;-64
2022/06/02 01:44:55;;;;;;;1.23;0.70;;;14.10;93.70;;;;;;6239568;22;20008;-65
2022/06/02 01:47:40;;;;;;;3.20;0.80;;;14.30;93.50;;;;;;6241492;22;20322;-71
2022/06/02 01:50:31;;;;;;;1.52;0.70;;;14.40;93.00;;;;;;6242671;22;20423;-67
2022/06/02 01:53:03;;;;;;;3.47;1.83;;;14.50;92.60;;;;;;6243138;22;20000;-73
2022/06/02 01:55:51;;;;;;;4.80;1.17;;;14.60;92.50;;;;;;6241504;22;20434;-72
2022/06/02 01:58:43;;;;;;;4.10;1.70;;;14.70;92.70;;;;;;6241610;22;20367;-73
2022/06/02 02:01:41;;;;;;;2.83;1.52;;;14.80;92.50;;;;;;6242016;22;20062;-69
2022/06/02 02:04:37;;;;;;;2.25;0.80;;;15.00;92.60;;;;;;6242318;22;20073;-66
2022/06/02 02:07:25;;;;;;;3.33;1.05;;;15.00;92.50;;;;;;6244680;22;20001;-71
2022/06/02 02:09:57;;;;;;;8.23;1.73;;;14.90;92.30;;;;;;6244309;22;20008;-67
2022/06/02 02:12:24;;;;;;;;;;;14.90;92.70;;;;;;6245310;22;19997;-70
2022/06/02 02:15:16;;;;;;;3.28;1.10;;;14.90;92.10;;;;;;6243820;23;20440;-68
2022/06/02 02:18:18;;;;;;;2.33;1.13;;;15.00;92.50;;;;;;6243167;23;20327;-70
2022/06/02 02:21:13;;;;;;;2.85;1.33;;;15.10;92.90;;;;;;6164837;23;20607;-74
2022/06/02 02:23:44;;;;;;;3.72;1.00;;;15.20;92.00;;;;;;6243581;22;20390;-70
2022/06/02 02:26:15;;;;;;;2.87;1.20;;;15.40;92.70;;;;;;6240260;22;20015;-72
2022/06/02 02:29:37;;;;;;;2.35;1.10;;;15.50;92.10;;;;;;6243176;22;20070;-68
2022/06/02 02:32:19;;;;;;;3.88;1.15;;;15.70;91.60;;;;;;6095644;23;20534;-72
2022/06/02 02:34:55;;;;;;;3.90;1.10;;;16.00;91.70;;;;;;6243471;22;20330;-73
2022/06/02 02:37:30;;;;;;;3.20;1.08;;;16.30;91.40;;;;;;6243768;23;20066;-71
2022/06/02 02:40:34;;;;;;;3.03;1.27;;;16.50;91.10;;;;;;6244640;22;20000;-71
2022/06/02 02:43:32;;;;;;;4.78;1.67;;;16.70;90.60;;;;;;6221054;23;20009;-68
2022/06/02 02:46:17;;;;;;;3.30;1.15;;;17.00;90.60;;;;;;6244104;22;20028;-66
2022/06/02 02:49:14;;;;;;;2.10;1.33;;;17.10;90.10;;;;;;6244339;22;20083;-67
2022/06/02 02:51:54;;;;;;;3.25;1.23;;;17.30;90.10;;;;;;6243324;22;20366;-70
2022/06/02 02:54:37;;;;;;;2.00;1.13;;;17.40;90.10;;;;;;6243697;22;20337;-68
2022/06/02 02:57:20;;;;;;;2.20;0.95;;;17.60;90.10;;;;;;6243647;22;20326;-74
2022/06/02 02:59:56;;;;;;;1.58;0.90;;;17.90;89.80;;;;;;6243737;22;20510;-67
2022/06/02 03:02:24;;;;;;;2.55;1.17;;;18.10;88.00;;;;;;6244026;22;20399;-68
2022/06/02 03:05:30;;;;;;;3.65;1.25;;;18.40;88.60;;;;;;6242175;23;20438;-70
2022/06/02 03:08:30;;;;;;;4.93;1.02;;;18.60;86.50;;;;;;6238353;23;20098;-74
2022/06/02 03:11:12;;;;;;;5.97;1.25;;;18.70;85.90;;;;;;6136897;22;20524;-68
2022/06/02 03:13:52;;;;;;;3.28;0.90;;;18.80;86.60;;;;;;6243459;22;20006;-75
2022/06/02 03:16:21;;;;;;;1.23;0.80;;;19.00;86.40;;;;;;6243668;22;20008;-69
2022/06/02 03:19:17;;;;;;;2.58;1.00;;;19.10;86.10;;;;;;6244089;22;20441;-66
2022/06/02 03:21:50;;;;;;;1.85;1.17;;;19.20;84.60;;;;;;6243881;22;20011;-65
2022/06/02 03:24:46;;;;;;;3.70;0.98;;;19.20;83.70;;;;;;6243323;22;20004;-66
2022/06/02 03:27:31;;;;;;;3.83;1.00;;;19.30;84.60;;;;;;6244437;22;20000;-66
2022/06/02 03:30:04;;;;;;;8.20;1.30;;;19.30;85.00;;;;;;6244010;22;20004;-68
2022/06/02 03:32:49;;;;;;;2.38;1.15;;;19.50;84.00;;;;;;6233012;22;20662;-71
2022/06/02 03:35:48;;;;;;;4.90;1.63;;;19.50;82.70;;;;;;6233081;22;20003;-69
2022/06/02 03:38:30;;;;;;;3.63;1.20;;;19.60;84.00;;;;;;6242673;23;20004;-67
2022/06/02 03:41:00;;;;;;;3.60;1.33;;;20.10;82.80;;;;;;6244172;22;20491;-66
2022/06/02 03:43:46;;;;;;;2.95;0.82;;;20.50;80.00;;;;;;6243344;22;19999;-70
2022/06/02 03:46:29;;;;;;;3.97;1.20;;;20.80;79.30;;;;;;6242829;22;20022;-68
2022/06/02 03:49:25;;;;;;;4.07;1.30;;;21.30;79.00;;;;;;6243642;22;20000;-68
2022/06/02 03:52:29;;;;;;;2.70;0.98;;;21.60;77.10;;;;;;6243192;22;20087;-67
2022/06/02 03:55:32;;;;;;;2.90;0.93;;;21.30;77.60;;;;;;6242372;22;20487;-68
2022/06/02 03:58:16;;;;;;;5.28;1.25;;;21.40;77.90;;;;;;6243115;22;20004;-69
2022/06/02 04:01:04;;;;;;;3.47;1.33;;;21.50;76.60;;;;;;6243974;22;20079;-68
2022/06/02 04:03:31;;;;;;;2.83;1.20;;;21.10;77.10;;;;;;6240958;22;20016;-78
2022/06/02 04:06:35;;;;;;;5.85;1.50;;;21.00;77.50;;;;;;6242472;22;20385;-68
2022/06/02 04:09:08;;;;;;;3.42;1.25;;;21.10;77.10;;;;;;6243515;23;20408;-69
2022/06/02 04:15:13;;;;;;;5.65;1.00;;;20.40;77.70;;;;;;6241460;23;20063;-79
2022/06/02 04:18:19;;;;;;;4.05;0.95;;;19.80;78.10;;;;;;6242143;22;20004;-76
2022/06/02 04:21:39;;;;;;;4.40;1.33;;;19.20;80.00;;;;;;6243175;22;20007;-78
2022/06/02 04:24:15;;;;;;;2.40;1.13;;;18.70;79.50;;;;;;6162345;23;20087;-77
2022/06/02 04:27:03;;;;;;;3.45;1.15;;;18.30;80.80;;;;;;6243457;22;20096;-73
2022/06/02 04:29:42;;;;;;;3.58;1.10;;;18.10;81.90;;;;;;6243444;22;20308;-71
2022/06/02 04:32:41;;;;;;;3.72;1.05;;;17.90;82.80;;;;;;6242667;22;19996;-70
2022/06/02 04:35:43;;;;;;;3.70;1.10;;;18.00;83.90;;;;;;6241795;22;20014;-71
2022/06/02 04:38:26;;;;;;;2.50;0.70;;;17.70;83.70;;;;;;6206088;22;20007;-79
2022/06/02 04:41:31;;;;;;;3.55;0.90;;;17.50;83.90;;;;;;6243994;22;20008;-75
2022/06/02 04:44:33;;;;;;;5.82;1.17;;;17.50;83.40;;;;;;6196086;22;20032;-78
2022/06/02 04:47:22;;;;;;;3.25;1.10;;;17.40;84.60;;;;;;6244343;22;20296;-77
2022/06/02 04:50:21;;;;;;;5.13;1.02;;;17.40;84.90;;;;;;6242787;22;20079;-75
2022/06/02 04:53:04;;;;;;;4.93;1.00;;;17.30;84.80;;;;;;6201659;22;20008;-77
2022/06/02 04:55:38;;;;;;;3.50;1.35;;;17.30;84.40;;;;;;6240259;23;20008;-68
2022/06/02 04:58:25;;;;;;;2.72;0.82;;;17.20;83.50;;;;;;6242926;22;20437;-69
2022/06/02 05:01:14;;;;;;;5.20;1.02;;;17.10;84.30;;;;;;6241735;22;20015;-67
2022/06/02 05:04:02;;;;;;;3.95;1.13;;;17.10;85.10;;;;;;6240657;22;20024;-67
2022/06/02 05:06:36;;;;;;;5.25;1.55;;;17.00;85.30;;;;;;6242386;22;20097;-68
2022/06/02 05:09:30;;;;;;;2.83;0.80;;;17.10;85.20;;;;;;6243035;22;20381;-69
2022/06/02 05:12:16;;;;;;;3.58;1.17;;;17.20;86.70;;;;;;6242508;23;20008;-71
2022/06/02 05:15:20;;;;;;;4.85;1.00;;;17.30;85.30;;;;;;6241743;23;20000;-67
2022/06/02 05:18:17;;;;;;;3.95;0.80;;;17.30;85.20;;;;;;6241056;23;20000;-68
2022/06/02 05:20:50;;;;;;;2.60;0.95;;;17.30;85.10;;;;;;6241271;22;20007;-73
2022/06/02 05:23:39;;;;;;;4.13;1.00;;;17.30;84.70;;;;;;6240551;23;20079;-66
2022/06/02 05:26:46;;;;;;;4.25;1.08;;;17.30;84.60;;;;;;6240670;23;20426;-67
2022/06/02 05:29:25;;;;;;;4.57;1.15;;;17.40;86.20;;;;;;6241788;23;20045;-67
2022/06/02 05:32:00;;;;;;;3.65;1.63;;;17.60;85.30;;;;;;6239212;23;20004;-68
2022/06/02 05:34:56;;;;;;;5.25;1.05;;;17.90;84.40;;;;;;6241697;22;20012;-67
2022/06/02 05:37:48;;;;;;;7.90;1.25;;;18.00;80.10;;;;;;6214739;23;20027;-67
2022/06/02 05:40:21;;;;;;;3.93;1.17;;;18.10;81.80;;;;;;6242639;23;20358;-66
2022/06/02 05:42:56;;;;;;;3.03;1.10;;;18.10;82.30;;;;;;6242707;22;20221;-67
2022/06/02 05:45:58;;;;;;;4.85;1.25;;;18.10;82.20;;;;;;6241064;22;20020;-72
2022/06/02 05:48:50;;;;;;;4.38;1.02;;;18.10;83.20;;;;;;6135198;22;20006;-66
2022/06/02 05:51:20;;;;;;;3.55;0.98;;;18.10;82.30;;;;;;6242982;22;20000;-68
2022/06/02 05:54:25;;;;;;;3.80;1.23;;;18.10;83.10;;;;;;6242075;23;20007;-69
2022/06/02 05:57:10;;;;;;;4.32;1.30;;;18.40;82.40;;;;;;6119978;23;20006;-70
2022/06/02 06:00:18;;;;;;;3.72;1.10;;;18.60;81.90;;;;;;6235891;22;20004;-72
2022/06/02 06:03:02;;;;;;;3.30;0.77;;;18.80;80.60;;;;;;6242030;22;20066;-66
2022/06/02 06:05:53;;;;;;;3.45;0.88;;;18.60;78.50;;;;;;6243037;22;20016;-67
2022/06/02 06:08:49;;;;;;;2.72;0.88;;;18.20;79.50;;;;;;6243427;22;20031;-71
2022/06/02 06:11:31;;;;;;;2.85;0.77;;;17.80;82.00;;;;;;6241248;22;20011;-70
2022/06/02 06:14:14;;;;;;;3.00;1.15;;;17.40;83.00;;;;;;6242650;22;20004;-71
2022/06/02 06:16:56;;;;;;;7.53;1.60;;;17.00;86.80;;;;;;6244300;22;20004;-67
2022/06/02 06:20:02;;;;;;;4.63;1.60;;;16.70;88.20;;;;;;6244752;22;20004;-72
2022/06/02 06:22:59;;;;;;;5.22;1.48;;;16.30;90.50;;;;;;6242603;22;20024;-74
2022/06/02 06:26:03;;;;;;;5.68;1.88;;;16.10;91.40;;;;;;6242892;23;20532;-71
2022/06/02 06:28:36;;;;;;;4.55;1.10;;;15.80;92.50;;;;;;6242199;23;20441;-74
2022/06/02 06:31:29;;;;;;;5.22;1.30;;;15.50;92.90;;;;;;6243098;22;19996;-75
2022/06/02 06:34:16;;;;;;;;;;;15.40;93.60;;;;;;6243105;22;20004;-75
2022/06/02 06:37:02;;;;;;;2.55;1.30;;;15.20;94.00;;;;;;6242560;22;19911;-71
2022/06/02 06:39:58;;;;;;;3.75;1.30;;;15.00;94.20;;;;;;6242566;22;20126;-76
2022/06/02 06:42:43;;;;;;;3.47;1.52;;;14.80;94.40;;;;;;6242280;22;20000;-77
2022/06/02 06:45:22;;;;;;;3.78;2.38;;;14.70;94.80;;;;;;6242298;22;20502;-72
2022/06/02 06:48:01;;;;;;;8.23;1.52;;;14.50;95.30;;;;;;6242544;22;20000;-72
2022/06/02 06:51:03;;;;;;;3.22;1.33;;;14.40;95.80;;;;;;6241975;22;20334;-71
2022/06/02 06:53:56;;;;;;;3.67;1.47;;;14.30;96.20;;;;;;6244586;22;20066;-66
2022/06/02 06:56:41;;;;;;;7.70;2.20;;;14.20;96.80;;;;;;6242466;23;20079;-68
2022/06/02 06:59:41;;;;;;;4.18;1.88;;;14.10;97.40;;;;;;6244484;23;20058;-68
2022/06/02 07:02:15;;;;;;;4.25;2.03;;;14.00;97.60;;;;;;6244528;22;20004;-66
2022/06/02 07:05:10;;;;;;;5.28;1.70;;;13.80;98.00;;;;;;6244933;22;20027;-69
2022/06/02 07:07:58;;;;;;;4.57;2.33;;;13.70;98.30;;;;;;6244393;22;20087;-69
2022/06/02 07:14:20;;;;;;;5.60;1.80;;;13.50;99.10;;;;;;6206318;22;20019;-66
2022/06/02 07:16:56;;;;;;;4.85;2.05;;;13.40;99.40;;;;;;6245417;22;19996;-69
2022/06/02 07:20:01;;;;;;;6.22;2.00;;;13.40;99.80;;;;;;6245621;22;20028;-65
2022/06/02 07:22:55;;;;;;;6.78;1.92;;;13.30;99.90;;;;;;6245125;22;20028;-66
2022/06/02 07:25:54;;;;;;;4.50;2.47;;;13.20;99.90;;;;;;6243243;23;20015;-72
2022/06/02 07:28:48;;;;;;;5.85;2.47;;;13.10;99.90;;;;;;6239626;23;20471;-67
2022/06/02 07:31:40;;;;;;;5.32;2.63;;;13.00;99.90;;;;;;6242150;23;20080;-67
2022/06/02 07:34:35;;;;;;;10.25;4.35;;;13.00;99.90;;;;;;6243655;22;20042;-67
2022/06/02 07:37:32;;;;;;;9.48;3.17;;;13.00;99.90;;;;;;6243504;22;20000;-71
2022/06/02 07:40:31;;;;;;;5.70;2.53;;;12.90;99.90;;;;;;6228406;23;20465;-68
2022/06/02 07:43:35;;;;;;;8.68;3.03;;;12.80;99.90;;;;;;6193279;23;20455;-68
2022/06/02 07:46:30;;;;;;;5.88;2.67;;;12.80;99.90;;;;;;6243782;22;20019;-67
2022/06/02 07:49:24;;;;;;;8.10;3.35;;;12.70;99.90;;;;;;6242013;23;19999;-68
2022/06/02 07:52:08;;;;;;;6.43;3.05;;;12.70;99.90;;;;;;6243804;22;20034;-71
2022/06/02 07:54:50;;;;;;;7.00;4.10;;;12.70;99.90;;;;;;6242442;23;20011;-66
2022/06/02 07:57:36;;;;;;;7.07;3.40;;;12.60;99.90;;;;;;6243818;22;20003;-66
2022/06/02 08:00:20;;;;;;;5.75;3.00;;;12.50;99.90;;;;;;6242204;22;20532;-67
2022/06/02 08:03:13;;;;;;;5.93;3.58;;;12.50;99.90;;;;;;6243178;22;20016;-66
2022/06/02 08:05:51;;;;;;;7.47;4.40;;;12.50;99.90;;;;;;6237662;23;20070;-66
2022/06/02 08:08:18;;;;;;;9.07;4.45;;;12.40;99.90;;;;;;6244343;22;20011;-67
2022/06/02 08:11:03;;;;;;;9.38;4.18;;;12.40;99.90;;;;;;6243793;22;19996;-65
2022/06/02 08:13:52;;;;;;;10.45;4.85;;;12.40;99.90;;;;;;6244016;22;20075;-64
2022/06/02 08:16:56;;;;;;;9.48;4.28;;;12.30;99.90;;;;;;6242880;22;20006;-67
2022/06/02 08:19:49;;;;;;;7.97;4.53;;;12.30;99.90;;;;;;6242303;23;20000;-65
2022/06/02 08:22:37;;;;;;;10.93;5.28;;;12.20;99.90;;;;;;6244956;22;20004;-67
2022/06/02 08:25:12;;;;;;;9.73;5.22;;;12.10;99.90;;;;;;6244573;22;20324;-68
2022/06/02 08:28:09;;;;;;;9.73;5.25;;;12.10;99.90;;;;;;6244261;22;20004;-67
2022/06/02 08:30:57;;;;;;;12.45;5.25;;;12.10;99.90;;;;;;6243778;22;20366;-73
2022/06/02 08:33:51;;;;;;;12.77;6.13;;;12.00;99.90;;;;;;6240984;22;20000;-69
2022/06/02 08:36:29;;;;;;;10.85;7.00;;;12.00;99.90;;;;;;6242369;22;20007;-65
2022/06/02 08:39:06;;;;;;;11.68;5.85;;;12.00;99.90;;;;;;6243332;22;20007;-66
2022/06/02 08:42:01;;;;;;;12.25;7.07;;;12.00;99.90;;;;;;6243504;22;20000;-67
2022/06/02 08:44:28;;;;;;;13.05;8.40;;;11.90;99.90;;;;;;6245373;23;20374;-66
2022/06/02 08:47:35;;;;;;;11.82;7.63;;;11.90;99.90;;;;;;6244076;22;20000;-67
2022/06/02 08:50:49;;;;;;;12.05;8.50;;;11.90;99.90;;;;;;6243892;23;20318;-69
2022/06/02 08:53:16;;;;;;;15.55;8.25;;;11.80;99.90;;;;;;6243952;23;20389;-66
2022/06/02 08:56:11;;;;;;;11.93;7.63;;;11.80;99.90;;;;;;6242613;23;20032;-66
2022/06/02 08:59:08;;;;;;;12.32;8.25;;;11.80;99.90;;;;;;6244238;22;20007;-67
2022/06/02 09:02:17;;;;;;;12.30;8.55;;;11.80;99.90;;;;;;6244446;22;20071;-66
2022/06/02 09:05:08;;;;;;;14.77;9.48;;;11.70;99.90;;;;;;6243548;23;20095;-65
2022/06/02 09:08:21;;;;;;;13.35;9.75;;;11.70;99.90;;;;;;6243843;22;20027;-71
2022/06/02 09:11:11;;;;;;;16.38;8.32;;;11.70;99.90;;;;;;6243719;23;20003;-66
2022/06/02 09:14:15;;;;;;;11.52;7.25;;;11.70;99.90;;;;;;6243155;22;20024;-66
2022/06/02 09:16:55;;;;;;;16.05;7.85;;;11.60;99.90;;;;;;6242904;23;20057;-66
2022/06/02 09:19:52;;;;;;;13.23;8.70;;;11.60;99.90;;;;;;6243237;22;20000;-66
2022/06/02 09:22:32;;;;;;;14.05;8.00;;;11.60;99.90;;;;;;6243104;22;20004;-67
2022/06/02 09:24:59;;;;;;;19.27;10.75;;;11.50;99.90;;;;;;6242295;22;20378;-67
2022/06/02 09:27:54;;;;;;;19.80;11.18;;;11.50;99.90;;;;;;6243485;22;20429;-67
2022/06/02 09:30:45;;;;;;;23.02;12.98;;;11.50;99.90;;;;;;6243750;22;20035;-68
2022/06/02 09:36:21;;;;;;;25.42;14.55;;;11.50;99.90;;;;;;6242579;23;20467;-65
2022/06/02 09:38:53;;;;;;;24.30;12.93;;;11.40;99.90;;;;;;6242562;23;20000;-66
2022/06/02 09:41:30;;;;;;;23.40;12.40;;;11.40;99.90;;;;;;6243093;22;20430;-65
2022/06/02 09:44:25;;;;;;;22.65;12.68;;;11.40;99.90;;;;;;6242238;22;20004;-65
2022/06/02 09:47:20;;;;;;;19.27;11.15;;;11.30;99.90;;;;;;6243371;22;20221;-65
2022/06/02 09:50:10;;;;;;;19.58;12.45;;;11.30;99.90;;;;;;6242742;22;20000;-65
2022/06/02 09:53:09;;;;;;;16.88;10.32;;;11.30;99.90;;;;;;6242393;22;20004;-65
2022/06/02 09:55:58;;;;;;;13.38;9.23;;;11.30;99.90;;;;;;6242597;22;20000;-65
2022/06/02 09:59:02;;;;;;;15.73;9.73;;;11.30;99.90;;;;;;6243111;22;20027;-66
2022/06/02 10:02:07;;;;;;;13.75;9.13;;;11.30;99.90;;;;;;6242836;22;20004;-66
2022/06/02 10:04:35;;;;;;;15.02;9.40;;;11.30;99.90;;;;;;6242188;23;20024;-65
2022/06/02 10:07:05;;;;;;;17.10;9.52;;;11.30;99.90;;;;;;6242978;22;20000;-64
2022/06/02 10:09:32;;;;;;;17.85;10.55;;;11.30;99.90;;;;;;6243067;22;20007;-67
2022/06/02 10:15:39;;;;;;;16.83;9.45;;;11.20;99.90;;;;;;6242824;23;20058;-66
2022/06/02 10:18:49;;;;;;;14.02;8.98;;;11.20;99.90;;;;;;6242865;22;20015;-68
2022/06/02 10:21:34;;;;;;;16.02;8.02;;;11.20;99.90;;;;;;6242898;22;20004;-69
2022/06/02 10:24:21;;;;;;;15.65;9.27;;;11.20;99.90;;;;;;6243062;22;20327;-66
2022/06/02 10:26:57;;;;;;;14.45;8.45;;;11.20;99.90;;;;;;6243736;22;20304;-67
2022/06/02 10:29:55;;;;;;;13.43;7.55;;;11.20;99.90;;;;;;6244610;22;20032;-68
2022/06/02 10:32:53;;;;;;;16.67;9.05;;;11.20;99.90;;;;;;6245294;22;20446;-66
2022/06/02 10:35:35;;;;;;;13.45;8.48;;;11.10;99.90;;;;;;6245881;22;20000;-66
2022/06/02 10:38:27;;;;;;;16.20;8.45;;;11.20;99.90;;;;;;6245023;22;20010;-66
2022/06/02 10:40:57;;;;;;;15.63;8.55;;;11.10;99.90;;;;;;6245029;22;19996;-66
2022/06/02 10:44:01;;;;;;;14.70;7.97;;;11.10;99.90;;;;;;6245299;22;20058;-65
2022/06/02 10:47:02;;;;;;;12.77;8.73;;;11.10;99.90;;;;;;6245575;23;20015;-67
2022/06/02 10:49:56;;;;;;;14.75;8.20;;;11.10;99.90;;;;;;6245323;22;20423;-66
2022/06/02 10:52:35;;;;;;;14.52;7.97;;;11.00;99.90;;;;;;6245064;22;20008;-66
2022/06/02 10:55:38;;;;;;;12.30;7.25;;;11.00;99.90;;;;;;6244446;22;20003;-63
2022/06/02 10:58:39;;;;;;;13.75;7.30;;;10.90;99.90;;;;;;6244150;22;20000;-67
2022/06/02 11:01:28;;;;;;;14.98;8.10;;;10.80;99.90;;;;;;6244825;22;20103;-66
2022/06/02 11:04:26;;;;;;;13.05;7.78;;;10.90;99.90;;;;;;6245424;22;20008;-67
2022/06/02 11:07:17;;;;;;;15.65;8.13;;;10.80;99.90;;;;;;6245128;22;20020;-68
2022/06/02 11:09:57;;;;;;;19.02;9.43;;;10.80;99.90;;;;;;6244946;22;20371;-66
2022/06/02 11:12:42;;;;;;;21.85;9.50;;;10.80;99.90;;;;;;6244277;22;20071;-69
2022/06/02 11:15:09;;;;;;;15.82;9.02;;;10.80;99.90;;;;;;6245406;22;20479;-68
2022/06/02 11:18:11;;;;;;;15.30;10.30;;;10.70;99.90;;;;;;6245139;22;20000;-67
2022/06/02 11:21:00;;;;;;;13.07;8.25;;;10.80;99.90;;;;;;6245981;22;20008;-66
2022/06/02 11:23:45;;;;;;;13.52;9.25;;;10.70;99.90;;;;;;6246182;22;20058;-72
2022/06/02 11:26:29;;;;;;;15.05;8.77;;;10.70;99.90;;;;;;6245733;22;20020;-66
2022/06/02 11:29:14;;;;;;;17.52;8.90;;;10.70;99.90;;;;;;6245362;22;20139;-67
2022/06/02 11:31:55;;;;;;;12.95;8.02;;;10.70;99.90;;;;;;6244979;23;20004;-70
2022/06/02 11:34:53;;;;;;;13.70;8.80;;;10.60;99.90;;;;;;6245347;22;20048;-69
2022/06/02 11:37:26;;;;;;;16.65;8.65;;;10.60;99.90;;;;;;6245321;22;20007;-67
2022/06/02 11:40:21;;;;;;;15.75;9.07;;;10.60;99.90;;;;;;6244590;22;19997;-67
2022/06/02 11:43:04;;;;;;;15.80;9.23;;;10.50;99.90;;;;;;6245476;22;19996;-65
2022/06/02 11:46:01;;;;;;;14.02;8.27;;;10.50;99.90;;;;;;6244742;22;20008;-70
2022/06/02 11:48:35;;;;;;;13.20;8.93;;;10.50;99.90;;;;;;6244792;22;20003;-68
2022/06/02 11:51:43;;;;;;;16.83;9.43;;;10.50;99.90;;;;;;6245088;22;20004;-67
2022/06/02 11:54:22;;;;;;;17.15;9.20;;;10.40;99.90;;;;;;6245397;22;20007;-70
2022/06/02 11:57:07;;;;;;;20.50;10.68;;;10.40;99.90;;;;;;6245156;22;20082;-67
2022/06/02 11:59:41;;;;;;;20.95;11.48;;;10.40;99.90;;;;;;6244300;22;20071;-67
2022/06/02 12:02:37;;;;;;;12.65;8.68;;;10.30;99.90;;;;;;6244306;22;20308;-73
2022/06/02 12:05:28;;;;;;;16.48;10.35;;;10.30;99.90;;;;;;6244655;22;20019;-69
2022/06/02 12:08:11;;;;;;;15.93;10.13;;;10.30;99.90;;;;;;6244265;22;20011;-68
2022/06/02 12:11:04;;;;;;;15.45;9.50;;;10.20;99.90;;;;;;6244312;22;20004;-70
2022/06/02 12:14:01;;;;;;;20.50;11.40;;;10.20;99.90;;;;;;6229754;23;20079;-67
2022/06/02 12:16:49;;;;;;;16.55;10.35;;;10.20;99.90;;;;;;6243541;23;20015;-67
2022/06/02 12:20:02;;;;;;;16.27;9.23;;;10.20;99.90;;;;;;6244624;22;19996;-66
2022/06/02 12:23:09;;;;;;;18.05;9.95;;;10.10;99.90;;;;;;6122989;23;20408;-67
2022/06/02 12:25:59;;;;;;;15.13;9.93;;;10.00;99.90;;;;;;6219624;23;20008;-66
2022/06/02 12:28:38;;;;;;;17.80;10.90;;;10.10;99.90;;;;;;6244767;22;20008;-67
2022/06/02 12:31:24;;;;;;;16.80;9.80;;;10.00;99.90;;;;;;6244494;22;20498;-67
2022/06/02 12:34:03;;;;;;;14.43;10.10;;;10.10;99.90;;;;;;6244505;22;20000;-67
2022/06/02 12:37:10;;;;;;;14.13;9.00;;;10.10;99.90;;;;;;6244858;22;20000;-67
2022/06/02 12:39:58;;;;;;;14.18;9.75;;;10.00;99.90;;;;;;6244532;22;19998;-67
2022/06/02 12:42:44;;;;;;;14.57;9.75;;;10.00;99.90;;;;;;6244263;22;20004;-67
2022/06/02 12:45:22;;;;;;;15.88;9.85;;;10.00;99.90;;;;;;6244574;22;20378;-67
2022/06/02 12:48:05;;;;;;;15.52;9.98;;;10.00;99.90;;;;;;6245054;22;19996;-68
2022/06/02 12:50:53;;;;;;;16.83;9.43;;;10.00;99.90;;;;;;6243746;22;20004;-67
2022/06/02 12:53:54;;;;;;;17.25;10.95;;;10.00;99.90;;;;;;6244599;22;20020;-69
2022/06/02 12:56:43;;;;;;;16.98;10.38;;;10.00;99.90;;;;;;6222561;23;20047;-68
2022/06/02 12:59:51;;;;;;;17.58;10.15;;;10.00;99.90;;;;;;6244078;22;20034;-67
2022/06/02 13:02:24;;;;;;;15.32;10.23;;;10.00;99.90;;;;;;6228299;23;20007;-67
2022/06/02 13:05:22;;;;;;;14.90;9.52;;;10.00;99.90;;;;;;6243856;22;20023;-67
2022/06/02 13:08:10;;;;;;;15.98;10.02;;;10.10;99.90;;;;;;6242662;23;20011;-68
2022/06/02 13:10:49;;;;;;;15.50;10.10;;;10.10;99.90;;;;;;6244125;22;20007;-68
2022/06/02 13:13:26;;;;;;;15.25;9.32;;;10.10;99.90;;;;;;6242502;23;20004;-67
2022/06/02 13:15:56;;;;;;;16.52;9.98;;;10.10;99.90;;;;;;6244188;22;20015;-66
2022/06/02 13:18:39;;;;;;;18.02;9.88;;;10.10;99.90;;;;;;6242737;23;20103;-67
2022/06/02 13:21:27;;;;;;;13.38;9.85;;;10.10;99.90;;;;;;6244463;22;20004;-67
2022/06/02 13:24:07;;;;;;;15.27;9.93;;;10.10;99.90;;;;;;6244550;22;20004;-68
2022/06/02 13:27:03;;;;;;;20.35;10.20;;;10.10;99.90;;;;;;6243971;22;20018;-67
2022/06/02 13:29:58;;;;;;;13.68;9.70;;;10.10;99.90;;;;;;6244471;22;19997;-68
2022/06/02 13:32:43;;;;;;;12.07;8.82;;;10.10;99.90;;;;;;6244787;23;20007;-68
2022/06/02 13:35:50;;;;;;;15.98;9.25;;;10.10;99.90;;;;;;6243866;22;20001;-68
2022/06/02 13:38:37;;;;;;;14.75;9.18;;;10.10;99.90;;;;;;6242321;23;20028;-69
2022/06/02 13:41:31;;;;;;;11.45;8.13;;;10.10;99.90;;;;;;6244658;22;20004;-69
2022/06/02 13:44:24;;;;;;;10.68;7.95;;;10.10;99.90;;;;;;6242522;23;20334;-67
2022/06/02 13:47:01;;;;;;;;;;;10.10;99.90;;;;;;6187703;22;20016;-69
2022/06/02 13:49:49;;;;;;;14.98;9.02;;;10.10;99.90;;;;;;6244111;22;19923;-70
2022/06/02 13:52:57;;;;;;;13.48;8.13;;;10.10;99.90;;;;;;6244527;22;20010;-69
2022/06/02 13:58:56;;;;;;;11.30;7.60;;;10.10;99.90;;;;;;6243666;23;20350;-71
2022/06/02 14:01:48;;;;;;;14.98;8.57;;;10.10;99.90;;;;;;6244403;23;20001;-67
2022/06/02 14:04:22;;;;;;;14.00;7.78;;;10.10;99.90;;;;;;6246272;22;20019;-68
2022/06/02 14:07:26;;;;;;;11.63;8.00;;;10.10;99.90;;;;;;6246145;22;20000;-69
2022/06/02 14:10:12;;;;;;;10.07;7.53;;;10.10;99.90;;;;;;6245461;23;20053;-68
2022/06/02 14:13:13;;;;;;;11.40;6.93;;;10.10;99.90;;;;;;6244977;23;20019;-67
2022/06/02 14:15:53;;;;;;;12.50;7.15;;;10.10;99.90;;;;;;6245992;22;20032;-68
2022/06/02 14:18:26;;;;;;;10.15;7.32;;;10.10;99.90;;;;;;6246130;22;20050;-69
2022/06/02 14:21:30;;;;;;;12.75;7.40;;;10.10;99.90;;;;;;6243799;23;20300;-71
2022/06/02 14:24:36;;;;;;;15.60;7.55;;;10.10;99.90;;;;;;6246500;22;20506;-70
2022/06/02 14:27:27;;;;;;;15.48;8.63;;;10.10;99.90;;;;;;6200528;22;20438;-68
2022/06/02 14:30:00;;;;;;;13.55;7.68;;;10.10;99.90;;;;;;6246007;22;20027;-68
2022/06/02 14:32:54;;;;;;;12.05;6.97;;;10.10;99.90;;;;;;6245920;22;20007;-68
2022/06/02 14:35:46;;;;;;;12.57;7.22;;;10.00;99.90;;;;;;6246198;22;20000;-68
2022/06/02 14:38:20;;;;;;;13.30;8.00;;;10.00;99.90;;;;;;6245949;22;20020;-68
2022/06/02 14:41:20;;;;;;;12.38;7.65;;;9.90;99.90;;;;;;6245681;22;20003;-68
2022/06/02 14:44:00;;;;;;;13.30;8.10;;;9.90;99.90;;;;;;6245713;22;20008;-68
2022/06/02 14:46:52;;;;;;;13.35;7.38;;;9.90;99.90;;;;;;6245523;22;20008;-69
2022/06/02 14:49:40;;;;;;;13.15;8.35;;;9.80;99.90;;;;;;6244893;23;19996;-68
2022/06/02 14:52:36;;;;;;;12.13;7.18;;;9.80;99.90;;;;;;6243565;23;20492;-67
2022/06/02 14:55:09;;;;;;;14.77;7.85;;;9.70;99.90;;;;;;6178444;23;20004;-70